Main page
METAR-TAF:

METAR-TAF

Airports :

Shawbury, England

RAF Shawbury

latitude: 52-48N, longitude: 002-40W, elevation: 76 m

Current weather observation

The report was made 40 minutes ago, at 01:50 UTC
Wind 15 kt from the North/Northwest with gusts up to 25 kt
Temperature 16°C
Humidity 77%
Pressure 1013 hPa
Visibility 10 km or more

METAR: EGOS 240150Z AUTO 34015G25KT 9999 OVC023/// 16/12 Q1013 RERA

Time: 03:30 (02:30 UTC)


TAF: missing

Weather observations and forecasts of more than 4000 airports (METAR and TAF reports).

The available stations are represented by yellow and red dots on the map.

Hover mouse over dot to see the name of the station.

Then click to see weather observations and forecasts.

To change the map : click on the green buttons with a black cross to zoom in, on the green button with a dash to zoom out, or on the green arrows for adjacent maps.


METAR-TAF: